createdAt,value
2023-08-29T00:00:59.553Z,22.90
2023-08-29T00:03:32.165Z,22.90
2023-08-29T00:06:06.010Z,22.90
2023-08-29T00:08:34.582Z,22.90
2023-08-29T00:11:03.908Z,22.90
2023-08-29T00:13:31.086Z,22.90
2023-08-29T00:15:58.548Z,22.90
2023-08-29T00:18:25.633Z,22.90
2023-08-29T00:20:53.323Z,22.90
2023-08-29T00:23:20.188Z,22.90
2023-08-29T00:25:49.660Z,22.90
2023-08-29T00:28:16.545Z,22.90
2023-08-29T00:30:45.188Z,22.90
2023-08-29T00:33:12.876Z,22.80
2023-08-29T00:35:40.766Z,22.80
2023-08-29T00:38:08.049Z,22.80
2023-08-29T00:40:36.124Z,22.80
2023-08-29T00:43:03.996Z,22.80
2023-08-29T00:45:33.443Z,22.80
2023-08-29T00:48:04.203Z,22.70
2023-08-29T00:50:32.033Z,22.80
2023-08-29T00:53:02.080Z,22.80
2023-08-29T00:55:30.161Z,22.80
2023-08-29T00:57:57.752Z,22.80
2023-08-29T01:00:26.165Z,22.70
2023-08-29T01:02:53.112Z,22.70
2023-08-29T01:05:21.720Z,22.70
2023-08-29T01:07:53.877Z,22.70
2023-08-29T01:10:37.337Z,22.70
2023-08-29T01:13:34.885Z,22.70
2023-08-29T01:16:06.264Z,22.70
2023-08-29T01:18:35.192Z,22.70
2023-08-29T01:21:23.503Z,22.70
2023-08-29T01:24:11.918Z,22.60
2023-08-29T01:26:39.588Z,22.60
2023-08-29T01:29:06.582Z,22.60
2023-08-29T01:31:37.509Z,22.60
2023-08-29T01:34:04.926Z,22.60
2023-08-29T01:36:44.332Z,22.60
2023-08-29T01:39:11.598Z,22.60
2023-08-29T01:41:39.702Z,22.60
2023-08-29T01:44:06.785Z,22.60
2023-08-29T01:46:34.386Z,22.60
2023-08-29T01:49:03.569Z,22.60
2023-08-29T01:51:31.013Z,22.60
2023-08-29T01:53:58.512Z,22.60
2023-08-29T01:56:28.943Z,22.60
2023-08-29T01:58:57.223Z,22.60
2023-08-29T02:01:24.719Z,22.60
2023-08-29T02:03:52.863Z,22.60
2023-08-29T02:06:20.151Z,22.60
2023-08-29T02:08:47.166Z,22.60
2023-08-29T02:11:14.000Z,22.50
2023-08-29T02:13:40.876Z,22.50
2023-08-29T02:16:07.780Z,22.50
2023-08-29T02:18:34.799Z,22.50
2023-08-29T02:21:01.614Z,22.50
2023-08-29T02:23:28.839Z,22.50
2023-08-29T02:26:06.178Z,22.50
2023-08-29T02:28:38.845Z,22.50
2023-08-29T02:31:08.134Z,22.50
2023-08-29T02:33:38.958Z,22.50
2023-08-29T02:36:06.780Z,22.50
2023-08-29T02:38:34.445Z,22.50
2023-08-29T02:41:01.520Z,22.50
2023-08-29T02:43:28.851Z,22.40
2023-08-29T02:45:55.668Z,22.50
2023-08-29T02:48:22.496Z,22.50
2023-08-29T02:50:49.576Z,22.50
2023-08-29T02:53:17.985Z,22.40
2023-08-29T02:55:45.059Z,22.40
2023-08-29T02:58:11.943Z,22.40
2023-08-29T03:00:38.946Z,22.40
2023-08-29T03:03:06.060Z,22.40
2023-08-29T03:05:33.496Z,22.40
2023-08-29T03:08:01.314Z,22.40
2023-08-29T03:10:28.225Z,22.40
2023-08-29T03:12:55.104Z,22.40
2023-08-29T03:15:22.037Z,22.40
2023-08-29T03:17:48.954Z,22.40
2023-08-29T03:20:16.825Z,22.40
2023-08-29T03:22:43.998Z,22.40
2023-08-29T03:25:12.226Z,22.40
2023-08-29T03:27:39.085Z,22.40
2023-08-29T03:30:06.562Z,22.30
2023-08-29T03:32:33.459Z,22.40
2023-08-29T03:35:01.667Z,22.40
2023-08-29T03:37:29.188Z,22.30
2023-08-29T03:39:57.901Z,22.30
2023-08-29T03:42:24.786Z,22.30
2023-08-29T03:44:51.626Z,22.30
2023-08-29T03:47:19.937Z,22.30
2023-08-29T03:49:47.564Z,22.30
2023-08-29T03:52:27.607Z,22.30
2023-08-29T03:54:56.813Z,22.30
2023-08-29T03:57:24.172Z,22.30
2023-08-29T03:59:51.037Z,22.30
2023-08-29T04:02:19.831Z,22.30
2023-08-29T04:04:46.971Z,22.30
2023-08-29T04:07:13.962Z,22.30
2023-08-29T04:09:41.243Z,22.20
2023-08-29T04:12:09.351Z,22.20
2023-08-29T04:14:36.255Z,22.20
2023-08-29T04:17:03.223Z,22.20
2023-08-29T04:19:30.045Z,22.20
2023-08-29T04:21:57.984Z,22.20
2023-08-29T04:24:24.825Z,22.20
2023-08-29T04:26:52.128Z,22.20
2023-08-29T04:29:18.931Z,22.20
2023-08-29T04:31:45.857Z,22.20
2023-08-29T04:34:12.745Z,22.20
2023-08-29T04:36:39.615Z,22.20
2023-08-29T04:39:07.315Z,22.20
2023-08-29T04:41:34.140Z,22.20
2023-08-29T04:44:01.369Z,22.20
2023-08-29T04:46:28.188Z,22.20
2023-08-29T04:48:55.148Z,22.20
2023-08-29T04:51:22.010Z,22.20
2023-08-29T04:53:48.917Z,22.20
2023-08-29T04:56:15.748Z,22.20
2023-08-29T04:58:43.094Z,22.20
2023-08-29T05:01:10.062Z,22.20
2023-08-29T05:03:37.043Z,22.20
2023-08-29T05:06:04.143Z,22.20
2023-08-29T05:08:35.999Z,22.20
2023-08-29T05:11:03.940Z,22.20
2023-08-29T05:13:30.844Z,22.20
2023-08-29T05:15:57.673Z,22.20
2023-08-29T05:18:24.636Z,22.20
2023-08-29T05:20:53.003Z,22.20
2023-08-29T05:23:21.574Z,22.20
2023-08-29T05:25:48.514Z,22.20
2023-08-29T05:28:15.383Z,22.20
2023-08-29T05:30:43.971Z,22.20
2023-08-29T05:33:11.409Z,22.20
2023-08-29T05:35:38.260Z,22.20
2023-08-29T05:38:05.446Z,22.20
2023-08-29T05:40:34.367Z,22.20
2023-08-29T05:43:01.581Z,22.20
2023-08-29T05:45:28.459Z,22.20
2023-08-29T05:47:55.294Z,22.10
2023-08-29T05:50:22.270Z,22.10
2023-08-29T05:52:49.115Z,22.10
2023-08-29T05:55:16.037Z,22.20
2023-08-29T05:57:42.862Z,22.10
2023-08-29T06:00:11.412Z,22.20
2023-08-29T06:02:45.430Z,22.10
2023-08-29T06:05:12.502Z,22.10
2023-08-29T06:07:42.329Z,22.10
2023-08-29T06:10:09.526Z,22.10
2023-08-29T06:12:36.378Z,22.10
2023-08-29T06:15:03.292Z,22.20
2023-08-29T06:17:30.152Z,22.20
2023-08-29T06:19:57.476Z,22.20
2023-08-29T06:22:25.321Z,22.20
2023-08-29T06:24:52.204Z,22.20
2023-08-29T06:27:19.062Z,22.20
2023-08-29T06:29:45.875Z,22.20
2023-08-29T06:32:12.744Z,22.20
2023-08-29T06:34:39.547Z,22.20
2023-08-29T06:37:06.958Z,22.20
2023-08-29T06:39:34.097Z,22.20
2023-08-29T06:42:00.944Z,22.20
2023-08-29T06:44:28.092Z,22.20
2023-08-29T06:46:54.894Z,22.20
2023-08-29T06:49:21.649Z,22.30
2023-08-29T06:51:48.461Z,22.30
2023-08-29T06:54:15.293Z,22.30
2023-08-29T06:56:42.240Z,22.30
2023-08-29T06:59:09.327Z,22.30
2023-08-29T07:01:38.336Z,22.30
2023-08-29T07:04:05.722Z,22.30
2023-08-29T07:06:32.533Z,22.30
2023-08-29T07:08:59.352Z,22.30
2023-08-29T07:11:26.384Z,22.30
2023-08-29T07:13:53.162Z,22.30
2023-08-29T07:16:20.141Z,22.30
2023-08-29T07:18:47.432Z,22.30
2023-08-29T07:21:14.532Z,22.30
2023-08-29T07:23:41.477Z,22.30
2023-08-29T07:26:08.394Z,22.30
2023-08-29T07:28:35.223Z,22.30
2023-08-29T07:31:02.150Z,22.30
2023-08-29T07:33:28.939Z,22.30
2023-08-29T07:35:55.744Z,22.30
2023-08-29T07:38:22.641Z,22.30
2023-08-29T07:40:49.421Z,22.30
2023-08-29T07:43:16.905Z,22.40
2023-08-29T07:45:44.207Z,22.40
2023-08-29T07:48:11.637Z,22.40
2023-08-29T07:50:38.760Z,22.40
2023-08-29T07:53:05.653Z,22.40
2023-08-29T07:55:32.751Z,22.40
2023-08-29T07:58:00.712Z,22.40
2023-08-29T08:00:29.328Z,22.40
2023-08-29T08:02:56.768Z,22.40
2023-08-29T08:05:24.523Z,22.40
2023-08-29T08:07:51.552Z,22.40
2023-08-29T08:10:19.616Z,22.40
2023-08-29T08:12:50.485Z,22.40
2023-08-29T08:15:17.693Z,22.50
2023-08-29T08:17:45.850Z,22.50
2023-08-29T08:20:13.362Z,22.50
2023-08-29T08:22:41.546Z,22.50
2023-08-29T08:25:10.376Z,22.50
2023-08-29T08:27:37.609Z,22.50
2023-08-29T08:30:08.875Z,22.50
2023-08-29T08:32:36.200Z,22.60
2023-08-29T08:35:07.811Z,22.60
2023-08-29T08:37:35.848Z,22.60
2023-08-29T08:40:12.153Z,22.60
2023-08-29T08:42:41.964Z,22.60
2023-08-29T08:45:10.335Z,22.60
2023-08-29T08:47:38.309Z,22.60
2023-08-29T08:50:09.370Z,22.60
2023-08-29T08:52:37.170Z,22.60
2023-08-29T08:55:04.454Z,22.70
2023-08-29T08:57:32.032Z,22.70
2023-08-29T08:59:58.957Z,22.70
2023-08-29T09:02:27.015Z,22.70
2023-08-29T09:04:54.837Z,22.70
2023-08-29T09:07:21.691Z,22.70
2023-08-29T09:10:11.639Z,22.70
2023-08-29T09:12:56.782Z,22.70
2023-08-29T09:15:26.113Z,22.70
2023-08-29T09:17:54.691Z,22.80
2023-08-29T09:20:23.090Z,22.80
2023-08-29T09:22:49.860Z,22.80
2023-08-29T09:25:16.708Z,22.80
2023-08-29T09:27:46.527Z,22.80
2023-08-29T09:30:16.020Z,22.90
2023-08-29T09:32:47.821Z,22.90
2023-08-29T09:35:16.724Z,22.90
2023-08-29T09:37:48.415Z,22.90
2023-08-29T09:40:37.142Z,22.90
2023-08-29T09:43:05.902Z,22.90
2023-08-29T09:45:34.088Z,23.00
2023-08-29T09:48:07.334Z,23.00
2023-08-29T09:50:35.272Z,23.00
2023-08-29T09:53:03.929Z,23.00
2023-08-29T09:55:53.244Z,23.00
2023-08-29T09:58:24.970Z,23.00
2023-08-29T10:00:52.741Z,23.00
2023-08-29T10:03:20.708Z,23.00
2023-08-29T10:05:49.249Z,23.00
2023-08-29T10:08:34.832Z,23.00
2023-08-29T10:11:02.505Z,23.00
2023-08-29T10:13:31.036Z,23.00
2023-08-29T10:15:58.919Z,23.00
2023-08-29T10:18:27.176Z,23.00
2023-08-29T10:20:55.629Z,23.00
2023-08-29T10:23:24.079Z,23.00
2023-08-29T10:25:51.171Z,23.10
2023-08-29T10:28:19.201Z,23.10
2023-08-29T10:30:57.733Z,23.10
2023-08-29T10:33:24.642Z,23.10
2023-08-29T10:35:51.679Z,23.10
2023-08-29T10:38:19.288Z,23.10
2023-08-29T10:40:47.329Z,23.10
2023-08-29T10:43:22.007Z,23.10
2023-08-29T10:45:54.670Z,23.20
2023-08-29T10:48:31.206Z,23.20
2023-08-29T10:51:17.021Z,23.20
2023-08-29T10:53:52.661Z,23.20
2023-08-29T10:56:26.081Z,23.20
2023-08-29T10:58:55.017Z,23.20
2023-08-29T11:01:32.049Z,23.20
2023-08-29T11:04:16.868Z,23.20
2023-08-29T11:06:57.869Z,23.30
2023-08-29T11:09:26.235Z,23.30
2023-08-29T11:12:18.124Z,23.30
2023-08-29T11:14:58.800Z,23.30
2023-08-29T11:17:27.353Z,23.30
2023-08-29T11:19:56.264Z,23.30
2023-08-29T11:22:26.798Z,23.30
2023-08-29T11:24:57.733Z,23.30
2023-08-29T11:27:31.958Z,23.30
2023-08-29T11:30:25.188Z,23.40
2023-08-29T11:32:51.628Z,23.40
2023-08-29T11:35:18.859Z,23.40
2023-08-29T11:37:45.762Z,23.40
2023-08-29T11:40:18.104Z,23.40
2023-08-29T11:43:09.633Z,23.40
2023-08-29T11:45:48.859Z,23.40
2023-08-29T11:48:26.689Z,23.40
2023-08-29T11:50:58.245Z,23.40
2023-08-29T11:53:32.376Z,23.50
2023-08-29T11:56:00.338Z,23.50
2023-08-29T11:58:32.386Z,23.50
2023-08-29T12:01:02.440Z,23.50
2023-08-29T12:03:29.309Z,23.50
2023-08-29T12:05:58.294Z,23.50
2023-08-29T12:08:42.122Z,23.50
2023-08-29T12:11:10.828Z,23.50
2023-08-29T12:13:38.424Z,23.50
2023-08-29T12:16:15.054Z,23.50
2023-08-29T12:18:42.001Z,23.50
2023-08-29T12:21:15.139Z,23.50
2023-08-29T12:23:43.890Z,23.50
2023-08-29T12:26:11.950Z,23.50
2023-08-29T12:28:39.303Z,23.50
2023-08-29T12:31:08.380Z,23.50
2023-08-29T12:33:36.232Z,23.50
2023-08-29T12:36:04.147Z,23.50
2023-08-29T12:38:32.563Z,23.50
2023-08-29T12:40:59.614Z,23.50
2023-08-29T12:43:26.388Z,23.50
2023-08-29T12:45:59.296Z,23.50
2023-08-29T12:48:27.696Z,23.50
2023-08-29T12:50:54.620Z,23.50
2023-08-29T12:53:21.549Z,23.50
2023-08-29T12:55:48.379Z,23.50
2023-08-29T12:58:15.219Z,23.50
2023-08-29T13:00:43.259Z,23.50
2023-08-29T13:03:11.025Z,23.50
2023-08-29T13:05:38.157Z,23.50
2023-08-29T13:08:05.856Z,23.50
2023-08-29T13:10:33.050Z,23.60
2023-08-29T13:12:59.865Z,23.60
2023-08-29T13:15:33.944Z,23.60
2023-08-29T13:18:08.218Z,23.60
2023-08-29T13:20:35.489Z,23.60
2023-08-29T13:23:02.410Z,23.60
2023-08-29T13:25:29.863Z,23.60
2023-08-29T13:27:58.862Z,23.60
2023-08-29T13:30:25.775Z,23.60
2023-08-29T13:32:52.709Z,23.60
2023-08-29T13:35:20.116Z,23.60
2023-08-29T13:37:47.295Z,23.60
2023-08-29T13:40:14.555Z,23.60
2023-08-29T13:42:42.741Z,23.60
2023-08-29T13:45:10.056Z,23.60
2023-08-29T13:47:36.873Z,23.60
2023-08-29T13:50:04.006Z,23.60
2023-08-29T13:52:30.902Z,23.60
2023-08-29T13:54:57.938Z,23.60
2023-08-29T13:57:24.937Z,23.60
2023-08-29T13:59:51.822Z,23.60
2023-08-29T14:02:18.837Z,23.60
2023-08-29T14:04:45.819Z,23.60
2023-08-29T14:07:12.722Z,23.50
2023-08-29T14:09:39.583Z,23.50
2023-08-29T14:12:06.820Z,23.50
2023-08-29T14:14:33.590Z,23.60
2023-08-29T14:17:00.412Z,23.50
2023-08-29T14:19:27.308Z,23.60
2023-08-29T14:21:54.147Z,23.50
2023-08-29T14:24:20.989Z,23.50
2023-08-29T14:26:48.102Z,23.50
2023-08-29T14:29:15.005Z,23.50
2023-08-29T14:31:41.936Z,23.50
2023-08-29T14:34:08.867Z,23.50
2023-08-29T14:36:35.696Z,23.50
2023-08-29T14:39:02.984Z,23.50
2023-08-29T14:41:29.773Z,23.50
2023-08-29T14:43:56.920Z,23.50
2023-08-29T14:46:23.948Z,23.50
2023-08-29T14:48:50.795Z,23.50
2023-08-29T14:51:17.633Z,23.50
2023-08-29T14:53:44.528Z,23.50
2023-08-29T14:56:11.521Z,23.40
2023-08-29T14:58:38.368Z,23.40
2023-08-29T15:01:05.223Z,23.50
2023-08-29T15:03:32.255Z,23.50
2023-08-29T15:05:59.719Z,23.40
2023-08-29T15:08:27.231Z,23.40
2023-08-29T15:10:57.971Z,23.40
2023-08-29T15:13:29.048Z,23.40
2023-08-29T15:16:00.469Z,23.40
2023-08-29T15:18:27.728Z,23.40
2023-08-29T15:20:54.609Z,23.40
2023-08-29T15:23:21.930Z,23.40
2023-08-29T15:25:48.799Z,23.40
2023-08-29T15:28:15.568Z,23.40
2023-08-29T15:30:42.336Z,23.40
2023-08-29T15:33:09.277Z,23.40
2023-08-29T15:35:36.190Z,23.40
2023-08-29T15:38:03.285Z,23.40
2023-08-29T15:40:30.215Z,23.40
2023-08-29T15:42:58.962Z,23.40
2023-08-29T15:45:25.967Z,23.40
2023-08-29T15:47:53.966Z,23.30
2023-08-29T15:50:21.058Z,23.40
2023-08-29T15:52:47.864Z,23.40
2023-08-29T15:55:14.712Z,23.30
2023-08-29T15:57:41.545Z,23.30
2023-08-29T16:00:15.199Z,23.30
2023-08-29T16:02:45.426Z,23.30
2023-08-29T16:05:12.567Z,23.30
2023-08-29T16:07:39.770Z,23.30
2023-08-29T16:10:07.444Z,23.30
2023-08-29T16:12:34.279Z,23.30
2023-08-29T16:15:01.095Z,23.30
2023-08-29T16:17:28.818Z,23.30
2023-08-29T16:19:55.726Z,23.30
2023-08-29T16:22:22.627Z,23.30
2023-08-29T16:24:49.399Z,23.30
2023-08-29T16:27:17.045Z,23.30
2023-08-29T16:29:43.881Z,23.30
2023-08-29T16:32:10.702Z,23.30
2023-08-29T16:34:37.602Z,23.30
2023-08-29T16:37:05.060Z,23.30
2023-08-29T16:39:34.078Z,23.30
2023-08-29T16:42:01.148Z,23.30
2023-08-29T16:44:27.919Z,23.30
2023-08-29T16:46:54.807Z,23.30
2023-08-29T16:49:21.642Z,23.40
2023-08-29T16:51:48.410Z,23.30
2023-08-29T16:54:16.244Z,23.40
2023-08-29T16:56:43.258Z,23.40
2023-08-29T16:59:10.173Z,23.40
2023-08-29T17:01:37.760Z,23.40
2023-08-29T17:04:06.887Z,23.40
2023-08-29T17:06:34.534Z,23.40
2023-08-29T17:09:01.753Z,23.40
2023-08-29T17:11:28.635Z,23.40
2023-08-29T17:13:55.477Z,23.40
2023-08-29T17:16:23.068Z,23.40
2023-08-29T17:18:49.994Z,23.40
2023-08-29T17:21:17.868Z,23.40
2023-08-29T17:23:44.712Z,23.40
2023-08-29T17:26:11.640Z,23.40
2023-08-29T17:28:38.522Z,23.40
2023-08-29T17:31:10.522Z,23.40
2023-08-29T17:33:37.393Z,23.40
2023-08-29T17:36:07.638Z,23.40
2023-08-29T17:38:34.455Z,23.40
2023-08-29T17:41:01.895Z,23.40
2023-08-29T17:43:29.396Z,23.40
2023-08-29T18:25:31.018Z,21.90
2023-08-29T18:27:57.916Z,23.50
2023-08-29T18:30:24.858Z,23.50
2023-08-29T18:32:51.820Z,23.50
2023-08-29T18:35:18.770Z,23.40
2023-08-29T18:37:45.739Z,23.40
2023-08-29T18:40:12.849Z,23.40
2023-08-29T18:42:39.792Z,23.30
2023-08-29T19:02:40.026Z,23.80
2023-08-29T19:05:08.603Z,24.60
2023-08-29T19:07:36.051Z,24.40
2023-08-29T19:10:04.761Z,24.20
2023-08-29T19:12:32.500Z,24.10
2023-08-29T19:15:01.754Z,24.00
2023-08-29T19:17:29.277Z,23.90
2023-08-29T19:19:56.265Z,23.80
2023-08-29T19:22:23.266Z,23.70
2023-08-29T19:24:50.273Z,23.60
2023-08-29T19:27:23.769Z,23.60
2023-08-29T19:29:55.030Z,23.50
2023-08-29T19:32:22.789Z,23.50
2023-08-29T19:34:49.899Z,23.50
2023-08-29T19:37:17.609Z,23.40
2023-08-29T19:39:44.593Z,23.40
2023-08-29T19:42:11.560Z,23.40
2023-08-29T19:44:38.498Z,23.30
2023-08-29T19:47:07.037Z,23.30
2023-08-29T19:49:39.036Z,23.30
2023-08-29T19:52:07.108Z,23.20
2023-08-29T19:54:34.186Z,23.20
2023-08-29T19:57:01.093Z,23.20
2023-08-29T19:59:28.018Z,23.20
2023-08-29T20:01:54.959Z,23.20
2023-08-29T20:04:22.223Z,23.20
2023-08-29T20:06:49.172Z,23.20
2023-08-29T20:09:16.775Z,23.20
2023-08-29T20:11:45.097Z,23.20
2023-08-29T20:14:13.589Z,23.10
2023-08-29T20:16:40.573Z,23.10
2023-08-29T20:19:07.559Z,23.10
2023-08-29T20:21:34.502Z,23.10
2023-08-29T20:24:02.806Z,23.10
2023-08-29T20:26:31.424Z,23.10
2023-08-29T20:29:00.591Z,23.10
2023-08-29T20:31:28.190Z,23.10
2023-08-29T20:33:55.089Z,23.10
2023-08-29T20:36:22.223Z,23.10
2023-08-29T20:38:49.195Z,23.10
2023-08-29T20:41:16.097Z,23.10
2023-08-29T20:43:43.122Z,23.10
2023-08-29T20:46:10.056Z,23.10
2023-08-29T20:48:37.018Z,23.10
2023-08-29T20:51:04.138Z,23.10
2023-08-29T20:53:33.172Z,23.00
2023-08-29T20:56:00.238Z,23.00
2023-08-29T20:58:27.156Z,23.10
2023-08-29T21:01:01.895Z,23.10
2023-08-29T21:03:30.425Z,23.00
2023-08-29T21:06:00.605Z,23.00
2023-08-29T21:08:28.296Z,23.00
2023-08-29T21:10:55.583Z,23.00
2023-08-29T21:13:23.694Z,23.00
2023-08-29T21:15:51.253Z,23.00
2023-08-29T21:18:19.801Z,23.00
2023-08-29T21:20:49.862Z,23.00
2023-08-29T21:23:16.838Z,23.00
2023-08-29T21:25:50.866Z,23.00
2023-08-29T21:28:19.175Z,23.00
2023-08-29T21:30:46.946Z,23.00
2023-08-29T21:33:14.349Z,22.90
2023-08-29T21:35:42.647Z,22.90
2023-08-29T21:38:11.383Z,22.90
2023-08-29T21:40:40.258Z,23.00
2023-08-29T21:43:12.492Z,22.90
2023-08-29T21:45:42.776Z,22.90
2023-08-29T21:48:11.499Z,22.90
2023-08-29T21:50:42.835Z,22.90
2023-08-29T21:53:11.243Z,22.90
2023-08-29T21:55:39.877Z,22.90
2023-08-29T21:58:08.598Z,22.90
2023-08-29T22:00:35.957Z,22.90
2023-08-29T22:03:03.412Z,22.90
2023-08-29T22:05:31.944Z,22.90
2023-08-29T22:07:59.746Z,22.90
2023-08-29T22:10:26.829Z,22.80
2023-08-29T22:12:53.845Z,22.90
2023-08-29T22:15:21.235Z,22.90
2023-08-29T22:17:48.359Z,22.90
2023-08-29T22:20:16.057Z,22.90
2023-08-29T22:22:43.258Z,22.80
2023-08-29T22:25:10.935Z,22.90
2023-08-29T22:27:38.064Z,22.90
2023-08-29T22:30:06.460Z,22.80
2023-08-29T22:32:34.170Z,22.80
2023-08-29T22:35:01.699Z,22.80
2023-08-29T22:37:28.955Z,22.80
2023-08-29T22:39:55.876Z,22.80
2023-08-29T22:42:23.300Z,22.80
2023-08-29T22:44:50.219Z,22.80
2023-08-29T22:47:17.651Z,22.80
2023-08-29T22:49:44.822Z,22.80
2023-08-29T22:52:12.701Z,22.80
2023-08-29T22:54:39.735Z,22.80
2023-08-29T22:57:06.759Z,22.70
2023-08-29T22:59:33.693Z,22.70
2023-08-29T23:02:00.601Z,22.80
2023-08-29T23:04:30.363Z,22.70
2023-08-29T23:07:05.372Z,22.70
2023-08-29T23:09:32.986Z,22.70
2023-08-29T23:12:01.039Z,22.70
2023-08-29T23:14:29.094Z,22.70
2023-08-29T23:16:57.661Z,22.70
2023-08-29T23:19:25.320Z,22.70
2023-08-29T23:21:55.834Z,22.70
2023-08-29T23:24:23.344Z,22.70
2023-08-29T23:26:50.435Z,22.70
2023-08-29T23:29:17.953Z,22.70
2023-08-29T23:31:45.363Z,22.70
2023-08-29T23:34:12.371Z,22.70
2023-08-29T23:36:39.455Z,22.70
2023-08-29T23:39:08.296Z,22.70
2023-08-29T23:41:35.719Z,22.70
2023-08-29T23:44:02.775Z,22.70
2023-08-29T23:46:30.135Z,22.70
2023-08-29T23:48:57.066Z,22.70
2023-08-29T23:51:23.957Z,22.70
2023-08-29T23:53:51.515Z,22.70
2023-08-29T23:56:18.901Z,22.70
2023-08-29T23:58:46.549Z,22.70
